createdAt,value
2022-08-31T00:01:53.689Z,68.70
2022-08-31T00:04:27.833Z,69.14
2022-08-31T00:07:00.404Z,69.49
2022-08-31T00:09:32.983Z,69.40
2022-08-31T00:12:05.568Z,69.96
2022-08-31T00:14:38.197Z,69.77
2022-08-31T00:17:10.649Z,70.21
2022-08-31T00:19:43.238Z,69.96
2022-08-31T00:22:15.620Z,70.09
2022-08-31T00:24:48.061Z,70.12
2022-08-31T00:27:21.889Z,70.87
2022-08-31T00:29:54.379Z,70.71
2022-08-31T00:32:28.970Z,70.62
2022-08-31T00:35:01.899Z,70.50
2022-08-31T00:37:34.416Z,71.10
2022-08-31T00:40:07.388Z,71.13
2022-08-31T00:42:40.486Z,70.93
2022-08-31T00:45:13.626Z,71.11
2022-08-31T00:47:46.040Z,70.94
2022-08-31T00:50:20.871Z,70.83
2022-08-31T00:52:59.609Z,71.15
2022-08-31T00:55:35.280Z,70.90
2022-08-31T00:58:11.605Z,71.02
2022-08-31T01:00:45.025Z,71.32
2022-08-31T01:03:18.427Z,71.05
2022-08-31T01:05:51.600Z,70.98
2022-08-31T01:08:30.802Z,71.26
2022-08-31T01:11:03.641Z,71.18
2022-08-31T01:13:37.411Z,70.62
2022-08-31T01:16:14.682Z,70.88
2022-08-31T01:18:48.373Z,71.23
2022-08-31T01:21:29.917Z,70.52
2022-08-31T01:24:04.748Z,70.72
2022-08-31T01:26:38.067Z,70.88
2022-08-31T01:29:10.535Z,70.88
2022-08-31T01:31:46.031Z,70.98
2022-08-31T01:34:18.473Z,71.08
2022-08-31T01:36:52.008Z,70.91
2022-08-31T01:39:24.496Z,70.76
2022-08-31T01:41:57.046Z,71.08
2022-08-31T01:44:29.568Z,71.02
2022-08-31T01:47:02.062Z,70.97
2022-08-31T01:49:34.764Z,71.18
2022-08-31T01:52:07.596Z,71.21
2022-08-31T01:54:40.046Z,71.71
2022-08-31T01:57:12.463Z,71.91
2022-08-31T01:59:44.897Z,71.84
2022-08-31T02:02:17.560Z,71.97
2022-08-31T02:04:50.037Z,72.14
2022-08-31T02:07:22.508Z,72.48
2022-08-31T02:09:55.046Z,72.67
2022-08-31T02:12:27.495Z,72.53
2022-08-31T02:15:00.358Z,72.81
2022-08-31T02:17:32.898Z,72.76
2022-08-31T02:20:09.985Z,72.42
2022-08-31T02:22:42.809Z,72.93
2022-08-31T02:25:16.427Z,73.14
2022-08-31T02:27:48.844Z,73.23
2022-08-31T02:30:21.269Z,73.32
2022-08-31T02:32:53.760Z,73.07
2022-08-31T02:35:26.190Z,72.93
2022-08-31T02:37:58.592Z,73.16
2022-08-31T02:40:32.600Z,73.57
2022-08-31T02:43:05.792Z,73.73
2022-08-31T02:45:38.676Z,73.88
2022-08-31T02:48:12.248Z,73.87
2022-08-31T02:50:49.920Z,73.67
2022-08-31T02:53:23.205Z,74.06
2022-08-31T02:55:56.299Z,74.39
2022-08-31T02:58:28.832Z,74.31
2022-08-31T03:01:01.706Z,74.15
2022-08-31T03:03:34.967Z,74.29
2022-08-31T03:06:07.483Z,74.38
2022-08-31T03:08:42.138Z,74.56
2022-08-31T03:11:15.880Z,74.77
2022-08-31T03:13:48.487Z,75.05
2022-08-31T03:16:21.075Z,75.00
2022-08-31T03:18:53.923Z,75.44
2022-08-31T03:21:26.334Z,75.33
2022-08-31T03:23:58.759Z,75.19
2022-08-31T03:26:31.160Z,75.30
2022-08-31T03:29:03.968Z,75.54
2022-08-31T03:31:36.759Z,75.50
2022-08-31T03:34:09.220Z,75.56
2022-08-31T03:36:41.620Z,75.33
2022-08-31T03:39:14.143Z,75.54
2022-08-31T03:41:46.648Z,75.79
2022-08-31T03:44:21.660Z,75.73
2022-08-31T03:46:55.435Z,75.79
2022-08-31T03:49:29.012Z,75.87
2022-08-31T03:52:02.267Z,76.00
2022-08-31T03:54:35.531Z,76.06
2022-08-31T03:57:08.100Z,76.04
2022-08-31T03:59:40.520Z,75.73
2022-08-31T04:02:13.017Z,75.62
2022-08-31T04:04:52.486Z,75.88
2022-08-31T04:07:24.945Z,75.64
2022-08-31T04:09:57.603Z,75.26
2022-08-31T04:12:30.008Z,74.93
2022-08-31T04:15:03.011Z,74.53
2022-08-31T04:17:35.503Z,74.54
2022-08-31T04:20:08.511Z,74.02
2022-08-31T04:22:41.079Z,74.18
2022-08-31T04:25:13.472Z,73.84
2022-08-31T04:27:50.729Z,74.11
2022-08-31T04:30:23.731Z,73.84
2022-08-31T04:32:56.987Z,73.81
2022-08-31T04:35:30.708Z,73.69
2022-08-31T04:38:03.183Z,73.43
2022-08-31T04:40:38.816Z,73.67
2022-08-31T04:43:11.706Z,73.15
2022-08-31T04:45:46.082Z,73.45
2022-08-31T04:48:18.851Z,73.24
2022-08-31T04:50:51.257Z,73.07
2022-08-31T04:53:23.704Z,73.60
2022-08-31T04:55:56.937Z,73.34
2022-08-31T04:58:29.323Z,73.21
2022-08-31T05:01:01.822Z,73.30
2022-08-31T05:03:34.255Z,73.24
2022-08-31T05:06:12.193Z,73.04
2022-08-31T05:08:44.849Z,73.11
2022-08-31T05:11:23.020Z,73.17
2022-08-31T05:13:59.502Z,73.56
2022-08-31T05:16:33.550Z,73.63
2022-08-31T05:19:06.579Z,73.69
2022-08-31T05:21:41.377Z,73.78
2022-08-31T05:24:21.569Z,73.59
2022-08-31T05:26:56.016Z,73.17
2022-08-31T05:29:28.956Z,72.96
2022-08-31T05:32:01.506Z,72.56
2022-08-31T05:34:33.920Z,72.51
2022-08-31T05:37:06.368Z,72.14
2022-08-31T05:39:39.968Z,71.32
2022-08-31T05:42:15.360Z,71.15
2022-08-31T05:44:47.882Z,71.20
2022-08-31T05:47:20.263Z,70.88
2022-08-31T05:49:52.683Z,70.54
2022-08-31T05:52:25.275Z,70.39
2022-08-31T05:54:57.843Z,70.16
2022-08-31T05:57:30.312Z,69.46
2022-08-31T06:00:05.543Z,69.57
2022-08-31T06:02:39.706Z,68.95
2022-08-31T06:05:12.318Z,68.62
2022-08-31T06:07:46.946Z,68.65
2022-08-31T06:10:19.400Z,68.15
2022-08-31T06:12:52.040Z,67.60
2022-08-31T06:15:24.641Z,67.52
2022-08-31T06:17:57.602Z,66.97
2022-08-31T06:20:30.692Z,66.72
2022-08-31T06:23:04.088Z,66.36
2022-08-31T06:25:36.622Z,66.05
2022-08-31T06:28:14.872Z,65.40
2022-08-31T06:30:55.281Z,64.65
2022-08-31T06:33:29.385Z,64.76
2022-08-31T06:36:02.007Z,63.86
2022-08-31T06:38:35.270Z,63.60
2022-08-31T06:41:12.721Z,63.00
2022-08-31T06:43:45.726Z,61.99
2022-08-31T06:46:19.463Z,62.21
2022-08-31T06:48:56.630Z,61.87
2022-08-31T06:51:29.249Z,61.63
2022-08-31T06:54:27.510Z,61.63
2022-08-31T06:56:59.816Z,61.54
2022-08-31T06:59:33.312Z,61.64
2022-08-31T07:02:05.807Z,61.29
2022-08-31T07:04:39.556Z,60.96
2022-08-31T07:07:12.324Z,61.19
2022-08-31T07:09:44.748Z,61.18
2022-08-31T07:12:17.208Z,60.39
2022-08-31T07:14:54.697Z,60.45
2022-08-31T07:17:27.872Z,59.99
2022-08-31T07:20:00.298Z,60.04
2022-08-31T07:22:32.716Z,59.65
2022-08-31T07:25:05.872Z,59.84
2022-08-31T07:27:39.929Z,59.88
2022-08-31T07:30:12.748Z,58.88
2022-08-31T07:32:45.193Z,59.13
2022-08-31T07:35:18.486Z,58.96
2022-08-31T07:38:09.457Z,59.01
2022-08-31T07:41:00.239Z,58.49
2022-08-31T07:43:32.721Z,58.72
2022-08-31T07:46:06.677Z,58.64
2022-08-31T07:48:39.160Z,58.55
2022-08-31T07:51:15.110Z,57.97
2022-08-31T07:53:47.909Z,58.46
2022-08-31T07:56:22.091Z,57.86
2022-08-31T07:58:54.509Z,58.26
2022-08-31T08:01:32.573Z,58.08
2022-08-31T08:04:13.100Z,57.75
2022-08-31T08:06:45.488Z,57.21
2022-08-31T08:09:24.553Z,56.85
2022-08-31T08:12:01.836Z,57.22
2022-08-31T08:14:36.512Z,57.24
2022-08-31T08:17:09.108Z,56.83
2022-08-31T08:19:41.526Z,56.67
2022-08-31T08:22:19.316Z,56.32
2022-08-31T08:25:04.686Z,56.60
2022-08-31T08:27:39.364Z,56.24
2022-08-31T08:30:13.688Z,55.93
2022-08-31T08:32:47.715Z,55.54
2022-08-31T08:35:20.457Z,55.38
2022-08-31T08:37:59.347Z,54.94
2022-08-31T08:40:42.251Z,54.76
2022-08-31T08:43:17.991Z,54.74
2022-08-31T08:45:54.894Z,54.59
2022-08-31T08:48:32.646Z,54.24
2022-08-31T08:51:13.378Z,53.99
2022-08-31T08:53:51.104Z,54.11
2022-08-31T08:56:33.282Z,54.75
2022-08-31T08:59:10.588Z,54.72
2022-08-31T09:01:47.022Z,54.34
2022-08-31T09:04:51.582Z,54.63
2022-08-31T09:07:50.603Z,54.83
2022-08-31T09:10:30.148Z,54.88
2022-08-31T09:13:28.768Z,54.51
2022-08-31T09:16:10.278Z,53.86
2022-08-31T09:18:49.975Z,54.15
2022-08-31T09:21:29.516Z,53.76
2022-08-31T09:24:07.339Z,53.88
2022-08-31T09:27:20.062Z,53.41
2022-08-31T09:29:59.663Z,53.46
2022-08-31T09:32:35.551Z,53.13
2022-08-31T09:35:23.630Z,52.72
2022-08-31T09:38:02.747Z,52.91
2022-08-31T09:40:36.245Z,53.42
2022-08-31T09:43:22.197Z,53.64
2022-08-31T09:46:11.674Z,53.26
2022-08-31T09:48:51.843Z,52.93
2022-08-31T09:51:33.771Z,52.71
2022-08-31T09:54:26.390Z,51.96
2022-08-31T09:57:00.238Z,51.44
2022-08-31T09:59:51.516Z,51.11
2022-08-31T10:02:33.443Z,50.88
2022-08-31T10:05:23.573Z,51.11
2022-08-31T10:08:04.276Z,50.24
2022-08-31T10:10:39.364Z,49.71
2022-08-31T10:13:22.223Z,49.85
2022-08-31T10:16:02.608Z,49.20
2022-08-31T10:18:39.414Z,48.91
2022-08-31T10:21:24.990Z,49.89
2022-08-31T10:24:20.415Z,49.58
2022-08-31T10:27:02.792Z,49.10
2022-08-31T10:29:57.941Z,49.16
2022-08-31T10:32:47.309Z,48.89
2022-08-31T10:35:31.420Z,49.32
2022-08-31T10:38:20.093Z,48.87
2022-08-31T10:41:19.135Z,48.86
2022-08-31T10:44:08.445Z,48.88
2022-08-31T10:46:40.991Z,48.78
2022-08-31T10:49:13.826Z,48.43
2022-08-31T10:52:17.173Z,48.99
2022-08-31T10:55:15.010Z,49.26
2022-08-31T10:57:56.183Z,49.13
2022-08-31T11:00:45.605Z,49.07
2022-08-31T11:03:39.151Z,48.52
2022-08-31T11:06:23.601Z,48.17
2022-08-31T11:09:26.077Z,47.89
2022-08-31T11:12:18.348Z,47.78
2022-08-31T11:14:50.789Z,47.48
2022-08-31T11:17:41.453Z,47.83
2022-08-31T11:20:34.099Z,48.01
2022-08-31T11:23:43.817Z,48.19
2022-08-31T11:26:31.751Z,47.43
2022-08-31T11:29:24.880Z,47.88
2022-08-31T11:32:05.810Z,47.34
2022-08-31T11:34:47.403Z,47.37
2022-08-31T11:37:57.270Z,47.74
2022-08-31T11:40:41.990Z,47.58
2022-08-31T11:43:32.961Z,47.31
2022-08-31T11:46:27.211Z,47.01
2022-08-31T11:49:00.543Z,46.43
2022-08-31T11:51:43.101Z,46.43
2022-08-31T11:54:26.599Z,46.08
2022-08-31T11:56:59.036Z,46.43
2022-08-31T11:59:35.289Z,46.73
2022-08-31T12:02:20.149Z,46.53
2022-08-31T12:04:53.430Z,46.22
2022-08-31T12:07:30.283Z,46.05
2022-08-31T12:10:08.265Z,45.87
2022-08-31T12:12:58.875Z,45.91
2022-08-31T12:16:04.018Z,46.24
2022-08-31T12:18:58.679Z,46.77
2022-08-31T12:22:15.932Z,46.02
2022-08-31T12:24:55.999Z,45.91
2022-08-31T12:27:52.807Z,44.56
2022-08-31T12:30:27.656Z,45.03
2022-08-31T12:33:11.848Z,44.76
2022-08-31T12:35:46.297Z,44.29
2022-08-31T12:38:21.407Z,44.18
2022-08-31T12:40:55.660Z,44.72
2022-08-31T12:43:37.472Z,44.29
2022-08-31T12:46:12.736Z,44.17
2022-08-31T12:49:15.740Z,44.27
2022-08-31T12:52:07.311Z,43.95
2022-08-31T12:54:54.613Z,43.91
2022-08-31T12:57:49.850Z,43.78
2022-08-31T13:00:32.119Z,43.65
2022-08-31T13:03:25.256Z,42.61
2022-08-31T13:06:05.750Z,43.08
2022-08-31T13:08:45.029Z,43.04
2022-08-31T13:11:40.968Z,42.93
2022-08-31T13:14:20.876Z,42.08
2022-08-31T13:17:06.514Z,41.32
2022-08-31T13:19:43.721Z,41.17
2022-08-31T13:22:27.528Z,40.16
2022-08-31T13:25:36.858Z,40.49
2022-08-31T13:28:15.209Z,40.39
2022-08-31T13:31:03.491Z,40.62
2022-08-31T13:33:40.606Z,40.62
2022-08-31T13:36:36.523Z,40.44
2022-08-31T13:39:16.862Z,40.55
2022-08-31T13:42:10.947Z,40.74
2022-08-31T13:44:44.056Z,40.55
2022-08-31T13:47:23.101Z,40.37
2022-08-31T13:50:13.057Z,39.49
2022-08-31T13:53:25.268Z,39.14
2022-08-31T13:55:51.893Z,39.55
2022-08-31T13:58:29.799Z,40.60
2022-08-31T14:01:32.708Z,40.24
2022-08-31T14:04:05.185Z,40.86
2022-08-31T14:06:39.178Z,41.17
2022-08-31T14:09:17.344Z,41.50
2022-08-31T14:11:53.469Z,40.83
2022-08-31T14:14:29.766Z,40.94
2022-08-31T14:17:03.304Z,40.35
2022-08-31T14:19:38.626Z,41.03
2022-08-31T14:22:40.107Z,39.08
2022-08-31T14:25:19.879Z,38.84
2022-08-31T14:27:52.300Z,38.84
2022-08-31T14:30:24.693Z,39.27
2022-08-31T14:32:58.081Z,39.61
2022-08-31T14:35:30.480Z,40.08
2022-08-31T14:38:02.919Z,40.37
2022-08-31T14:40:36.416Z,40.43
2022-08-31T14:43:13.211Z,40.45
2022-08-31T14:45:45.723Z,40.85
2022-08-31T14:48:19.168Z,40.22
2022-08-31T14:50:51.683Z,40.14
2022-08-31T14:53:24.243Z,39.50
2022-08-31T14:55:56.819Z,38.89
2022-08-31T14:58:34.120Z,39.17
2022-08-31T15:01:07.350Z,39.67
2022-08-31T15:03:43.559Z,39.56
2022-08-31T15:06:19.633Z,39.31
2022-08-31T15:08:52.056Z,39.34
2022-08-31T15:11:24.922Z,39.28
2022-08-31T15:13:57.691Z,39.10
2022-08-31T15:16:30.830Z,38.79
2022-08-31T15:19:04.340Z,38.52
2022-08-31T15:21:42.017Z,37.99
2022-08-31T15:24:19.737Z,37.92
2022-08-31T15:26:54.491Z,37.50
2022-08-31T15:29:30.145Z,37.19
2022-08-31T15:32:03.056Z,36.42
2022-08-31T15:34:37.015Z,36.73
2022-08-31T15:37:09.491Z,37.33
2022-08-31T15:39:43.414Z,38.07
2022-08-31T15:42:20.187Z,38.44
2022-08-31T15:44:58.837Z,38.19
2022-08-31T15:47:54.751Z,38.55
2022-08-31T15:50:31.698Z,38.79
2022-08-31T15:53:09.925Z,39.36
2022-08-31T15:55:44.649Z,38.94
2022-08-31T15:58:24.464Z,38.84
2022-08-31T16:00:58.069Z,38.09
2022-08-31T16:03:34.736Z,37.50
2022-08-31T16:06:11.337Z,37.23
2022-08-31T16:08:43.746Z,36.70
2022-08-31T16:11:16.218Z,36.34
2022-08-31T16:13:58.584Z,36.15
2022-08-31T16:16:36.858Z,35.67
2022-08-31T16:19:19.478Z,35.34
2022-08-31T16:22:07.536Z,35.28
2022-08-31T16:24:40.506Z,35.11
2022-08-31T16:27:17.466Z,35.13
2022-08-31T16:29:50.857Z,35.07
2022-08-31T16:32:26.564Z,34.46
2022-08-31T16:34:59.470Z,34.68
2022-08-31T16:37:32.786Z,34.71
2022-08-31T16:40:05.802Z,35.41
2022-08-31T16:42:38.497Z,35.41
2022-08-31T16:45:11.567Z,34.84
2022-08-31T16:47:43.952Z,35.09
2022-08-31T16:50:16.823Z,35.30
2022-08-31T16:52:50.902Z,34.83
2022-08-31T16:55:23.327Z,34.90
2022-08-31T16:57:55.740Z,35.11
2022-08-31T17:00:31.450Z,35.10
2022-08-31T17:03:07.020Z,35.14
2022-08-31T17:05:40.888Z,35.10
2022-08-31T17:08:14.642Z,35.44
2022-08-31T17:10:49.743Z,35.50
2022-08-31T17:13:22.276Z,35.18
2022-08-31T17:15:54.842Z,35.50
2022-08-31T17:18:27.710Z,35.84
2022-08-31T17:21:00.351Z,35.76
2022-08-31T17:23:35.152Z,35.70
2022-08-31T17:26:07.522Z,36.44
2022-08-31T17:28:39.944Z,36.32
2022-08-31T17:31:12.670Z,36.49
2022-08-31T17:33:45.107Z,36.29
2022-08-31T17:36:20.009Z,36.43
2022-08-31T17:38:54.868Z,37.37
2022-08-31T17:41:29.273Z,37.40
2022-08-31T17:44:01.859Z,37.99
2022-08-31T17:46:35.357Z,38.15
2022-08-31T17:49:08.223Z,38.58
2022-08-31T17:51:43.138Z,38.71
2022-08-31T17:54:18.764Z,39.10
2022-08-31T17:56:55.974Z,39.58
2022-08-31T17:59:34.537Z,40.14
2022-08-31T18:02:34.403Z,40.57
2022-08-31T18:05:11.816Z,41.02
2022-08-31T18:07:45.871Z,41.71
2022-08-31T18:10:18.674Z,42.60
2022-08-31T18:12:51.067Z,42.88
2022-08-31T18:15:23.540Z,43.71
2022-08-31T18:17:56.140Z,43.82
2022-08-31T18:20:28.795Z,44.07
2022-08-31T18:23:01.422Z,44.44
2022-08-31T18:25:36.897Z,44.73
2022-08-31T18:28:09.515Z,45.19
2022-08-31T18:30:41.922Z,45.27
2022-08-31T18:33:15.020Z,45.81
2022-08-31T18:35:51.005Z,45.90
2022-08-31T18:38:23.436Z,46.45
2022-08-31T18:41:14.413Z,46.40
2022-08-31T18:44:05.305Z,46.96
2022-08-31T18:46:37.897Z,47.20
2022-08-31T18:49:12.542Z,46.96
2022-08-31T18:51:46.222Z,47.65
2022-08-31T18:54:20.336Z,47.49
2022-08-31T18:56:52.731Z,47.90
2022-08-31T18:59:25.587Z,48.16
2022-08-31T19:01:58.298Z,48.34
2022-08-31T19:04:32.072Z,48.19
2022-08-31T19:07:06.412Z,48.71
2022-08-31T19:09:39.846Z,49.47
2022-08-31T19:12:16.171Z,49.13
2022-08-31T19:14:50.364Z,49.12
2022-08-31T19:17:23.276Z,49.24
2022-08-31T19:19:55.958Z,49.43
2022-08-31T19:22:28.398Z,49.69
2022-08-31T19:25:00.981Z,49.72
2022-08-31T19:27:34.725Z,49.96
2022-08-31T19:30:08.166Z,50.26
2022-08-31T19:32:41.508Z,50.39
2022-08-31T19:35:15.683Z,50.76
2022-08-31T19:37:51.592Z,50.88
2022-08-31T19:40:35.492Z,50.90
2022-08-31T19:46:16.216Z,51.15
2022-08-31T19:48:49.784Z,51.32
2022-08-31T19:51:23.530Z,51.11
2022-08-31T19:53:56.879Z,51.54
2022-08-31T19:56:32.133Z,51.89
2022-08-31T19:59:04.477Z,52.07
2022-08-31T20:01:39.301Z,51.94
2022-08-31T20:04:16.671Z,52.01
2022-08-31T20:06:49.876Z,52.10
2022-08-31T20:09:25.450Z,52.20
2022-08-31T20:11:59.846Z,52.16
2022-08-31T20:14:32.360Z,52.41
2022-08-31T20:17:05.014Z,52.27
2022-08-31T20:19:39.439Z,52.65
2022-08-31T20:22:13.414Z,52.64
2022-08-31T20:24:45.801Z,52.66
2022-08-31T20:27:19.576Z,53.07
2022-08-31T20:29:53.400Z,53.15
2022-08-31T20:32:25.851Z,53.54
2022-08-31T20:34:58.800Z,53.58
2022-08-31T20:37:31.671Z,53.76
2022-08-31T20:40:04.389Z,53.91
2022-08-31T20:42:37.208Z,54.35
2022-08-31T20:45:09.980Z,54.15
2022-08-31T20:48:00.994Z,54.38
2022-08-31T20:50:35.230Z,54.91
2022-08-31T20:53:08.796Z,54.24
2022-08-31T20:55:41.289Z,54.36
2022-08-31T20:58:14.542Z,54.95
2022-08-31T21:00:47.669Z,54.63
2022-08-31T21:03:20.353Z,54.68
2022-08-31T21:05:53.041Z,55.12
2022-08-31T21:08:26.123Z,55.08
2022-08-31T21:10:58.507Z,55.25
2022-08-31T21:13:31.217Z,55.15
2022-08-31T21:16:03.908Z,55.29
2022-08-31T21:18:37.356Z,55.59
2022-08-31T21:21:15.184Z,54.94
2022-08-31T21:23:47.996Z,54.90
2022-08-31T21:26:24.416Z,54.75
2022-08-31T21:28:56.853Z,54.85
2022-08-31T21:31:29.996Z,54.77
2022-08-31T21:34:02.970Z,54.35
2022-08-31T21:36:38.453Z,54.70
2022-08-31T21:39:11.753Z,54.43
2022-08-31T21:41:45.833Z,54.40
2022-08-31T21:44:20.801Z,54.00
2022-08-31T21:46:53.500Z,54.36
2022-08-31T21:49:26.016Z,54.23
2022-08-31T21:51:59.709Z,53.99
2022-08-31T21:54:32.192Z,54.26
2022-08-31T21:57:04.667Z,54.07
2022-08-31T21:59:37.166Z,53.88
2022-08-31T22:02:11.555Z,53.34
2022-08-31T22:04:44.497Z,53.73
2022-08-31T22:07:17.184Z,53.33
2022-08-31T22:09:49.568Z,53.08
2022-08-31T22:12:25.134Z,53.00
2022-08-31T22:14:58.650Z,52.54
2022-08-31T22:17:55.869Z,52.62
2022-08-31T22:20:24.675Z,52.56
2022-08-31T22:22:58.164Z,52.27
2022-08-31T22:25:33.390Z,51.94
2022-08-31T22:28:06.123Z,52.15
2022-08-31T22:30:38.768Z,52.41
2022-08-31T22:33:11.752Z,52.56
2022-08-31T22:35:44.477Z,52.70
2022-08-31T22:38:17.176Z,52.32
2022-08-31T22:40:50.025Z,52.73
2022-08-31T22:43:22.839Z,52.54
2022-08-31T22:45:55.283Z,52.30
2022-08-31T22:48:27.771Z,52.48
2022-08-31T22:51:09.128Z,52.46
2022-08-31T22:53:44.395Z,52.22
2022-08-31T22:56:25.512Z,51.99
2022-08-31T22:59:00.555Z,52.27
2022-08-31T23:01:47.408Z,51.69
2022-08-31T23:04:20.878Z,51.19
2022-08-31T23:06:56.079Z,51.10
2022-08-31T23:09:30.833Z,51.04
2022-08-31T23:12:04.743Z,51.16
2022-08-31T23:14:41.045Z,50.89
2022-08-31T23:17:13.744Z,50.59
2022-08-31T23:19:46.675Z,50.85
2022-08-31T23:22:19.351Z,50.43
2022-08-31T23:24:59.682Z,50.55
2022-08-31T23:27:32.674Z,51.26
2022-08-31T23:30:08.608Z,50.32
2022-08-31T23:32:44.535Z,50.83
2022-08-31T23:35:19.740Z,50.65
2022-08-31T23:37:54.247Z,51.03
2022-08-31T23:40:30.609Z,51.40
2022-08-31T23:43:04.656Z,51.48
2022-08-31T23:45:37.915Z,52.00
2022-08-31T23:48:10.367Z,51.47
2022-08-31T23:50:42.836Z,51.88
2022-08-31T23:53:17.353Z,52.04
2022-08-31T23:55:49.768Z,51.97
2022-08-31T23:58:22.276Z,51.88
